Artesia, Mississippi
Current Conditions -  °F | °C
As of 5:50 PM on Wednesday 26 Nov 2014 (Local Time) from KGTR Reporting Station
Broken Clouds Broken Clouds  
Wind Chill: 55°   Ceiling: 8000
Heat Index: 55°   Visibility: 10mi
Dew Point: 36°   Wind: 14mph
Humidity: 47%   Direction: 290°WNW
Pressure: 30.07"   Gusts: 21mph
Location:  33.42°N, 88.64°W
Report Text: KGTR 262350Z 29012G18KT 10SM BKN080 13/02 A3007
Loading
Personal Weather Stations






























Interactive Weather Map New forecast layout! Learn more

10-Day Weather Forecast

Advertisements
Track Severe Weather on mobile